Coeur d'Alene, ID (83814)

10:19 AM PDT on September 02, 2014 (GMT -0700)
Downtown Coeur d'Alene | Change Station
CLOSE
Current Station
Personal Weather Station
Location: Coeur d'Alene, ID
Elevation: 2175 ft
Nearby Weather Stations

Elev 2175 ft 47.67 °N, 116.79 °W | Updated 9 minutes ago

Clear
Clear
64.0 °F
Feels Like 64.0 °F
N
6.9
Wind Variable Wind from NE
Gusts 12.1 mph

Today
High -- | Low -- °F
--% Chance of Precip.
Yesterday
High -- | Low -- °F
Precip. -- in
6:07 AM 7:25 PM
First Quarter, 53% visible
Pressure 29.84 in
Visibility 10.0 miles
Clouds Scattered Clouds 6500 ft
Dew Point 47 °F
Humidity 54%
Rainfall 0.00 in
Snow Depth Not available.
UV 4 out of 12
Pollen 6.40 out of 12
Air Quality Not available.
Flu Activity Not available.
METAR KCOE 021715Z AUTO 20010G17KT 10SM SCT065 19/07 A2984 RMK AO1

More Conditions Fewer Conditions

Pressure 29.84 in
Visibility 10.0 miles
Clouds Scattered Clouds 6500 ft
Dew Point 47 °F
Humidity 54%
Rainfall 0.00 in
Snow Depth Not available.
UV 4 out of 12
Pollen 6.40 out of 12
Air Quality Not available.
Flu Activity Not available.
METAR KCOE 021715Z AUTO 20010G17KT 10SM SCT065 19/07 A2984 RMK AO1

More Conditions Fewer Conditions

10-Day Weather Forecast

Almanac

Astronomy

Sep. 02, 2014 Rise Set
Actual Time 6:07 AM PDT 7:25 PM PDT
Civil Twilight 5:35 AM PDT 7:57 PM PDT
Nautical Twilight 4:56 AM PDT 8:35 PM PDT
Astronomical Twilight 4:15 AM PDT 9:16 PM PDT
Moon 2:26 PM PDT 11:52 PM PDT
Length of Visible Light 14h 22m
Length of Day
13h 18m
Tomorrow will be 3m 20s shorter.
First Quarter, 53% of the Moon is Illuminated
Today
First Quarter
Sep 8
Full
Sep 15
Last Quarter
Sep 24
New
Oct 1
First Quarter

Today's Extremes

State Highs State Lows

Community

WunderPhotos

Upload Photos

1,749,719 photos uploaded!

WunderBlogs® & News

By Dr. Jeff Masters
Director of Meteorology, Weather Underground
By Kari Strenfel
Meteorologist, Weather Underground
By Christopher C. Burt
Weather Historian, Weather Underground
September 2, 2014
September 2, 2014
September 2, 2014

Nearby

Snow Depth

Station Depth Elevation
Mica Creek 0 in 4750 ft
Humboldt Gulch 1 in 4250 ft
Schweitzer Basin 0 in 6090 ft
Bear Mountain 0 in 5400 ft
Sherwin 1 in 3200 ft

Earthquake Activity

City Distance Mag. Time & Date
No recent earthquake activity has been reported nearby.
Minimum magnitude displayed is 2.5.

Coastal Water Temperatures

Place Temperature
No Stations Reporting

Nearby Weather Stations